createdAt,value
2022-09-05T00:00:21.397Z,14.40
2022-09-05T00:03:08.718Z,14.40
2022-09-05T00:06:02.896Z,14.40
2022-09-05T00:08:51.355Z,14.40
2022-09-05T00:11:41.629Z,14.30
2022-09-05T00:15:16.971Z,14.30
2022-09-05T00:18:06.320Z,14.20
2022-09-05T00:24:27.971Z,14.20
2022-09-05T00:24:28.181Z,14.20
2022-09-05T00:26:36.929Z,14.10
2022-09-05T00:29:47.827Z,14.00
2022-09-05T00:32:22.624Z,14.00
2022-09-05T00:35:09.694Z,14.00
2022-09-05T00:37:44.329Z,13.90
2022-09-05T00:40:26.004Z,13.90
2022-09-05T00:42:58.306Z,13.80
2022-09-05T00:45:34.735Z,13.90
2022-09-05T00:48:13.606Z,13.80
2022-09-05T00:51:06.937Z,13.80
2022-09-05T00:53:46.598Z,13.70
2022-09-05T00:56:28.705Z,13.60
2022-09-05T00:59:11.425Z,13.50
2022-09-05T01:01:47.533Z,13.50
2022-09-05T01:04:34.384Z,13.40
2022-09-05T01:07:14.726Z,13.40
2022-09-05T01:09:52.574Z,13.40
2022-09-05T01:12:52.753Z,13.30
2022-09-05T01:15:32.371Z,13.30
2022-09-05T01:18:27.124Z,13.40
2022-09-05T01:21:22.278Z,13.30
2022-09-05T01:24:10.322Z,13.40
2022-09-05T01:26:59.062Z,13.30
2022-09-05T01:29:38.075Z,13.30
2022-09-05T01:32:19.788Z,13.30
2022-09-05T01:34:59.760Z,13.30
2022-09-05T01:37:39.891Z,13.20
2022-09-05T01:40:24.289Z,13.20
2022-09-05T01:43:06.113Z,13.20
2022-09-05T01:45:50.695Z,13.20
2022-09-05T01:48:36.271Z,13.20
2022-09-05T01:51:29.271Z,13.20
2022-09-05T01:54:24.336Z,13.20
2022-09-05T01:57:04.908Z,13.20
2022-09-05T01:59:45.843Z,13.20
2022-09-05T02:02:25.832Z,13.20
2022-09-05T02:05:47.438Z,13.30
2022-09-05T02:08:25.904Z,13.30
2022-09-05T02:11:07.266Z,13.20
2022-09-05T02:14:02.013Z,13.20
2022-09-05T02:16:43.673Z,13.10
2022-09-05T02:19:23.915Z,13.00
2022-09-05T02:22:01.861Z,13.10
2022-09-05T02:24:39.382Z,13.00
2022-09-05T02:27:31.541Z,12.90
2022-09-05T02:30:13.228Z,12.90
2022-09-05T02:32:55.856Z,12.90
2022-09-05T02:35:31.892Z,12.80
2022-09-05T02:40:19.011Z,12.70
2022-09-05T02:45:12.201Z,12.60
2022-09-05T02:45:21.089Z,12.60
2022-09-05T02:47:06.791Z,12.60
2022-09-05T02:52:14.246Z,12.60
2022-09-05T02:57:27.516Z,12.40
2022-09-05T02:57:36.372Z,12.40
2022-09-05T02:59:09.485Z,12.30
2022-09-05T03:01:59.810Z,12.30
2022-09-05T03:04:41.113Z,12.20
2022-09-05T03:07:24.602Z,12.20
2022-09-05T03:10:11.632Z,12.20
2022-09-05T03:13:12.037Z,12.20
2022-09-05T03:16:32.841Z,12.10
2022-09-05T03:19:51.991Z,12.00
2022-09-05T03:23:02.392Z,11.90
2022-09-05T03:26:09.028Z,11.90
2022-09-05T03:29:08.751Z,11.90
2022-09-05T03:32:02.401Z,11.80
2022-09-05T03:34:55.681Z,11.90
2022-09-05T03:37:48.246Z,11.90
2022-09-05T03:40:39.039Z,11.90
2022-09-05T03:43:31.281Z,11.80
2022-09-05T03:46:11.279Z,11.70
2022-09-05T03:49:16.224Z,11.70
2022-09-05T03:57:05.969Z,11.60
2022-09-05T03:57:24.819Z,11.50
2022-09-05T03:58:22.688Z,11.60
2022-09-05T04:01:17.574Z,11.60
2022-09-05T04:08:15.724Z,11.60
2022-09-05T04:08:19.632Z,11.60
2022-09-05T04:09:54.763Z,11.60
2022-09-05T04:12:29.238Z,11.70
2022-09-05T04:15:03.093Z,11.70
2022-09-05T04:17:38.877Z,11.60
2022-09-05T04:20:13.897Z,11.50
2022-09-05T04:23:11.547Z,11.60
2022-09-05T04:25:58.500Z,11.60
2022-09-05T04:28:57.238Z,11.60
2022-09-05T04:31:37.676Z,11.70
2022-09-05T04:34:37.898Z,11.70
2022-09-05T04:37:09.888Z,11.80
2022-09-05T04:39:39.608Z,11.80
2022-09-05T04:42:22.111Z,11.80
2022-09-05T04:44:55.794Z,11.90
2022-09-05T04:47:32.176Z,11.80
2022-09-05T04:50:10.104Z,11.90
2022-09-05T04:53:06.971Z,12.30
2022-09-05T04:55:46.824Z,13.90
2022-09-05T04:58:50.742Z,16.10
2022-09-05T05:06:03.208Z,18.10
2022-09-05T05:06:11.033Z,19.50
2022-09-05T05:07:19.970Z,20.10
2022-09-05T05:10:25.526Z,20.20
2022-09-05T05:18:00.261Z,20.60
2022-09-05T05:18:09.596Z,21.30
2022-09-05T05:18:59.483Z,21.70
2022-09-05T05:21:34.658Z,21.70
2022-09-05T05:24:12.937Z,21.50
2022-09-05T05:26:49.340Z,22.20
2022-09-05T05:29:36.597Z,22.60
2022-09-05T05:32:08.258Z,22.80
2022-09-05T05:34:43.173Z,23.70
2022-09-05T05:37:21.003Z,24.10
2022-09-05T05:40:02.088Z,24.60
2022-09-05T05:42:32.548Z,25.00
2022-09-05T05:45:02.549Z,26.10
2022-09-05T05:47:37.039Z,26.20
2022-09-05T05:50:11.608Z,26.00
2022-09-05T05:53:29.183Z,25.50
2022-09-05T05:56:38.119Z,25.70
2022-09-05T05:59:56.431Z,26.70
2022-09-05T06:03:26.532Z,26.60
2022-09-05T06:06:45.914Z,25.30
2022-09-05T06:14:47.974Z,25.20
2022-09-05T06:15:03.644Z,25.20
2022-09-05T06:16:50.445Z,25.60
2022-09-05T06:21:48.122Z,26.00
2022-09-05T06:23:36.694Z,25.90
2022-09-05T06:26:32.838Z,27.80
2022-09-05T06:29:13.087Z,29.30
2022-09-05T06:32:01.272Z,29.30
2022-09-05T06:35:00.025Z,28.80
2022-09-05T06:37:42.810Z,27.50
2022-09-05T06:40:19.221Z,27.70
2022-09-05T06:43:19.382Z,27.60
2022-09-05T06:46:05.173Z,26.60
2022-09-05T06:48:59.985Z,26.10
2022-09-05T06:52:29.027Z,25.60
2022-09-05T06:55:30.251Z,25.40
2022-09-05T06:58:27.065Z,25.50
2022-09-05T07:00:59.515Z,25.30
2022-09-05T07:03:40.500Z,24.20
2022-09-05T07:06:19.854Z,23.70
2022-09-05T07:08:59.538Z,23.00
2022-09-05T07:11:39.778Z,22.80
2022-09-05T07:14:19.858Z,22.10
2022-09-05T07:16:55.889Z,21.90
2022-09-05T07:19:30.498Z,21.80
2022-09-05T07:22:47.156Z,22.20
2022-09-05T07:25:18.675Z,22.40
2022-09-05T07:28:29.835Z,22.50
2022-09-05T07:30:50.980Z,22.60
2022-09-05T07:33:26.386Z,22.40
2022-09-05T07:35:59.008Z,22.30
2022-09-05T07:38:49.050Z,22.10
2022-09-05T07:41:25.497Z,21.80
2022-09-05T07:43:59.409Z,21.90
2022-09-05T07:46:33.179Z,22.10
2022-09-05T07:49:07.808Z,22.40
2022-09-05T07:56:47.518Z,22.50
2022-09-05T07:56:52.223Z,22.90
2022-09-05T07:57:31.197Z,23.10
2022-09-05T08:00:26.168Z,23.00
2022-09-05T08:02:57.657Z,22.70
2022-09-05T08:05:37.678Z,22.60
2022-09-05T08:08:12.377Z,22.70
2022-09-05T08:11:23.994Z,22.20
2022-09-05T08:13:57.846Z,22.10
2022-09-05T08:16:45.083Z,21.80
2022-09-05T08:19:38.338Z,21.90
2022-09-05T08:22:15.297Z,21.90
2022-09-05T08:24:53.419Z,22.30
2022-09-05T08:27:26.097Z,22.60
2022-09-05T08:30:26.355Z,22.90
2022-09-05T08:33:11.219Z,23.20
2022-09-05T08:35:45.900Z,23.50
2022-09-05T08:38:19.356Z,23.50
2022-09-05T08:41:00.407Z,23.50
2022-09-05T08:46:44.899Z,22.50
2022-09-05T08:46:44.992Z,22.90
2022-09-05T08:49:41.366Z,22.20
2022-09-05T08:52:19.738Z,22.20
2022-09-05T08:55:05.814Z,22.40
2022-09-05T08:58:02.619Z,22.20
2022-09-05T09:00:37.128Z,22.50
2022-09-05T09:03:22.556Z,22.70
2022-09-05T09:06:16.222Z,22.60
2022-09-05T09:09:10.858Z,22.40
2022-09-05T09:11:45.979Z,22.40
2022-09-05T09:14:32.857Z,22.50
2022-09-05T09:17:19.492Z,22.80
2022-09-05T09:19:53.257Z,23.10
2022-09-05T09:22:37.220Z,24.00
2022-09-05T09:25:15.212Z,23.90
2022-09-05T09:28:47.000Z,24.10
2022-09-05T09:31:12.882Z,24.40
2022-09-05T09:33:47.777Z,24.60
2022-09-05T09:36:41.779Z,24.60
2022-09-05T09:39:38.470Z,24.00
2022-09-05T09:42:33.523Z,23.50
2022-09-05T09:45:34.457Z,23.70
2022-09-05T09:48:36.762Z,24.00
2022-09-05T09:51:28.058Z,24.60
2022-09-05T09:54:19.161Z,24.20
2022-09-05T09:57:15.048Z,23.70
2022-09-05T10:00:07.617Z,23.10
2022-09-05T10:06:03.173Z,22.70
2022-09-05T10:10:51.336Z,23.20
2022-09-05T10:10:57.758Z,23.80
2022-09-05T10:13:16.244Z,23.40
2022-09-05T10:16:52.909Z,22.70
2022-09-05T10:20:29.179Z,22.90
2022-09-05T10:23:45.708Z,23.30
2022-09-05T10:26:39.667Z,23.70
2022-09-05T10:29:37.881Z,23.30
2022-09-05T10:34:55.086Z,23.50
2022-09-05T10:35:13.680Z,24.00
2022-09-05T10:37:54.558Z,24.10
2022-09-05T10:40:27.318Z,23.40
2022-09-05T10:43:04.079Z,23.30
2022-09-05T10:45:47.679Z,23.30
2022-09-05T10:48:24.519Z,23.10
2022-09-05T10:51:02.159Z,23.00
2022-09-05T10:53:39.318Z,23.10
2022-09-05T10:56:15.965Z,23.20
2022-09-05T11:02:15.688Z,23.50
2022-09-05T11:02:26.499Z,23.80
2022-09-05T11:05:01.621Z,23.50
2022-09-05T11:07:42.108Z,22.90
2022-09-05T11:10:17.719Z,22.80
2022-09-05T11:13:00.599Z,22.90
2022-09-05T11:15:43.993Z,23.00
2022-09-05T11:18:55.089Z,23.50
2022-09-05T11:21:30.880Z,24.00
2022-09-05T11:24:06.520Z,24.10
2022-09-05T11:26:42.668Z,23.60
2022-09-05T11:29:18.479Z,23.20
2022-09-05T11:33:28.206Z,23.50
2022-09-05T11:39:47.982Z,24.00
2022-09-05T11:40:04.609Z,23.70
2022-09-05T11:42:13.546Z,22.70
2022-09-05T11:45:09.201Z,22.50
2022-09-05T11:48:20.005Z,22.60
2022-09-05T11:51:01.800Z,22.60
2022-09-05T11:54:00.279Z,22.00
2022-09-05T11:57:33.858Z,21.50
2022-09-05T12:00:31.328Z,21.60
2022-09-05T12:03:44.430Z,22.30
2022-09-05T12:07:03.555Z,22.50
2022-09-05T12:10:46.798Z,22.50
2022-09-05T12:13:36.189Z,22.40
2022-09-05T12:16:20.550Z,22.30
2022-09-05T12:19:19.708Z,22.40
2022-09-05T12:22:14.469Z,22.70
2022-09-05T12:25:27.086Z,22.90
2022-09-05T12:28:28.521Z,23.10
2022-09-05T12:31:09.892Z,23.50
2022-09-05T12:35:52.994Z,23.90
2022-09-05T12:40:48.190Z,24.20
2022-09-05T12:41:32.331Z,24.40
2022-09-05T12:42:39.288Z,24.50
2022-09-05T12:45:27.147Z,24.50
2022-09-05T12:48:14.559Z,24.30
2022-09-05T12:50:52.401Z,24.30
2022-09-05T12:53:25.788Z,24.60
2022-09-05T12:56:47.962Z,24.50
2022-09-05T13:03:03.930Z,24.30
2022-09-05T13:03:09.581Z,24.50
2022-09-05T13:04:38.414Z,24.80
2022-09-05T13:07:28.000Z,25.00
2022-09-05T13:13:39.641Z,25.20
2022-09-05T13:14:56.090Z,25.20
2022-09-05T13:15:51.533Z,25.10
2022-09-05T13:18:24.479Z,24.70
2022-09-05T13:21:05.669Z,24.70
2022-09-05T13:23:41.879Z,24.80
2022-09-05T13:26:18.030Z,24.80
2022-09-05T13:29:07.056Z,24.10
2022-09-05T13:38:00.697Z,23.90
2022-09-05T13:38:14.031Z,23.70
2022-09-05T13:38:30.437Z,23.80
2022-09-05T13:40:47.599Z,24.10
2022-09-05T13:43:26.757Z,23.90
2022-09-05T13:46:11.350Z,23.70
2022-09-05T13:51:44.217Z,23.00
2022-09-05T13:54:36.603Z,23.20
2022-09-05T13:57:32.343Z,23.40
2022-09-05T14:01:03.625Z,23.10
2022-09-05T14:04:04.081Z,23.20
2022-09-05T14:07:43.830Z,23.20
2022-09-05T14:10:17.632Z,23.40
2022-09-05T14:13:00.410Z,23.20
2022-09-05T14:15:52.267Z,23.30
2022-09-05T14:18:24.773Z,23.10
2022-09-05T14:21:17.525Z,22.80
2022-09-05T14:23:54.231Z,22.80
2022-09-05T14:26:29.271Z,22.80
2022-09-05T14:29:05.958Z,22.70
2022-09-05T14:37:35.182Z,22.50
2022-09-05T14:37:39.201Z,22.10
2022-09-05T14:38:09.569Z,22.00
2022-09-05T14:41:32.002Z,22.10
2022-09-05T14:44:33.309Z,22.10
2022-09-05T14:47:36.097Z,22.10
2022-09-05T14:50:39.516Z,22.30
2022-09-05T14:57:06.854Z,22.30
2022-09-05T15:02:48.694Z,22.60
2022-09-05T15:02:52.077Z,22.90
2022-09-05T15:05:11.760Z,22.90
2022-09-05T15:07:43.708Z,23.00
2022-09-05T15:12:15.017Z,22.90
2022-09-05T15:13:25.824Z,22.70
2022-09-05T15:16:02.789Z,22.40
2022-09-05T15:18:38.396Z,21.90
2022-09-05T15:21:33.231Z,21.70
2022-09-05T15:24:15.200Z,21.60
2022-09-05T15:26:53.963Z,21.60
2022-09-05T15:29:28.879Z,21.60
2022-09-05T15:32:15.868Z,21.60
2022-09-05T15:34:45.669Z,21.60
2022-09-05T15:37:29.214Z,21.60
2022-09-05T15:40:22.510Z,21.80
2022-09-05T15:42:58.369Z,21.90
2022-09-05T15:45:33.208Z,22.10
2022-09-05T15:48:09.129Z,22.30
2022-09-05T15:50:46.756Z,22.50
2022-09-05T15:53:25.499Z,22.50
2022-09-05T15:56:01.048Z,22.30
2022-09-05T15:58:53.452Z,22.20
2022-09-05T16:01:59.854Z,22.30
2022-09-05T16:10:27.219Z,22.30
2022-09-05T16:10:38.651Z,22.20
2022-09-05T16:10:48.603Z,21.70
2022-09-05T16:13:14.740Z,21.40
2022-09-05T16:21:02.389Z,21.30
2022-09-05T16:23:24.215Z,21.40
2022-09-05T16:23:33.142Z,21.60
2022-09-05T16:24:58.509Z,21.60
2022-09-05T16:27:42.988Z,21.40
2022-09-05T16:30:21.238Z,21.20
2022-09-05T16:32:56.477Z,20.90
2022-09-05T16:35:26.921Z,20.80
2022-09-05T16:38:05.438Z,20.60
2022-09-05T16:40:40.440Z,20.50
2022-09-05T16:43:14.409Z,20.40
2022-09-05T16:45:51.623Z,20.30
2022-09-05T16:48:37.210Z,20.30
2022-09-05T16:51:16.729Z,20.20
2022-09-05T16:53:58.984Z,20.10
2022-09-05T16:56:36.278Z,20.10
2022-09-05T16:59:11.378Z,20.00
2022-09-05T17:02:05.460Z,19.90
2022-09-05T17:05:05.146Z,19.90
2022-09-05T17:07:54.774Z,19.80
2022-09-05T17:10:34.049Z,19.70
2022-09-05T17:13:04.926Z,19.70
2022-09-05T17:15:38.091Z,19.60
2022-09-05T17:18:27.861Z,19.60
2022-09-05T17:21:07.368Z,19.60
2022-09-05T17:29:21.209Z,19.60
2022-09-05T17:29:47.079Z,19.60
2022-09-05T17:32:51.209Z,19.40
2022-09-05T17:35:54.838Z,19.40
2022-09-05T17:38:50.770Z,19.30
2022-09-05T17:41:50.087Z,19.20
2022-09-05T17:44:24.959Z,19.10
2022-09-05T17:47:14.575Z,19.10
2022-09-05T17:49:47.408Z,19.10
2022-09-05T17:52:23.691Z,19.00
2022-09-05T17:54:56.529Z,19.00
2022-09-05T17:57:45.569Z,19.00
2022-09-05T18:01:00.183Z,18.90
2022-09-05T18:04:16.291Z,18.90
2022-09-05T18:06:59.599Z,18.90
2022-09-05T18:10:12.924Z,18.90
2022-09-05T18:13:31.772Z,18.70
2022-09-05T18:16:12.324Z,18.60
2022-09-05T18:19:28.914Z,18.40
2022-09-05T18:21:53.610Z,18.40
2022-09-05T18:24:36.758Z,18.30
2022-09-05T18:28:03.783Z,18.30
2022-09-05T18:30:26.330Z,18.30
2022-09-05T18:33:56.185Z,18.30
2022-09-05T18:36:36.399Z,18.20
2022-09-05T18:39:43.215Z,18.20
2022-09-05T18:42:34.508Z,18.10
2022-09-05T18:45:15.142Z,18.00
2022-09-05T18:47:57.326Z,18.00
2022-09-05T18:50:32.869Z,18.00
2022-09-05T18:53:09.225Z,18.00
2022-09-05T18:56:13.923Z,17.90
2022-09-05T18:59:10.814Z,17.90
2022-09-05T19:01:46.270Z,17.90
2022-09-05T19:04:40.967Z,17.70
2022-09-05T19:07:15.193Z,17.60
2022-09-05T19:10:34.889Z,17.50
2022-09-05T19:12:57.648Z,17.40
2022-09-05T19:15:35.983Z,17.40
2022-09-05T19:18:27.393Z,17.30
2022-09-05T19:21:12.403Z,17.20
2022-09-05T19:23:52.047Z,17.20
2022-09-05T19:26:24.159Z,17.20
2022-09-05T19:36:49.069Z,17.20
2022-09-05T19:36:53.089Z,17.20
2022-09-05T19:37:12.347Z,17.10
2022-09-05T19:37:44.560Z,17.00
2022-09-05T19:46:17.005Z,16.90
2022-09-05T19:47:47.596Z,16.90
2022-09-05T19:47:51.863Z,16.90
2022-09-05T19:49:10.640Z,16.90
2022-09-05T19:51:43.200Z,16.80
2022-09-05T19:54:27.576Z,16.70
2022-09-05T19:57:08.080Z,16.60
2022-09-05T19:59:41.095Z,16.50
2022-09-05T20:02:20.216Z,16.40
2022-09-05T20:04:54.695Z,16.20
2022-09-05T20:07:27.654Z,16.20
2022-09-05T20:09:59.656Z,16.10
2022-09-05T20:12:33.258Z,16.10
2022-09-05T20:15:20.960Z,16.10
2022-09-05T20:17:51.213Z,16.10
2022-09-05T20:20:25.973Z,16.00
2022-09-05T20:23:00.174Z,15.90
2022-09-05T20:25:39.993Z,15.80
2022-09-05T20:28:12.456Z,15.70
2022-09-05T20:30:45.108Z,15.70
2022-09-05T20:33:21.177Z,15.50
2022-09-05T20:39:47.516Z,15.40
2022-09-05T20:43:16.584Z,15.30
2022-09-05T20:43:18.671Z,15.40
2022-09-05T20:44:43.459Z,15.10
2022-09-05T20:53:12.434Z,15.10
2022-09-05T20:54:07.504Z,15.20
2022-09-05T20:54:16.437Z,15.10
2022-09-05T20:56:07.429Z,15.00
2022-09-05T20:58:40.616Z,14.90
2022-09-05T21:01:21.163Z,14.90
2022-09-05T21:03:57.977Z,14.80
2022-09-05T21:06:33.552Z,14.70
2022-09-05T21:09:22.601Z,14.70
2022-09-05T21:11:55.417Z,14.60
2022-09-05T21:14:28.696Z,14.60
2022-09-05T21:17:01.268Z,14.50
2022-09-05T21:19:43.683Z,14.40
2022-09-05T21:22:26.672Z,14.30
2022-09-05T21:25:25.981Z,14.30
2022-09-05T21:28:36.431Z,14.10
2022-09-05T21:31:13.705Z,14.20
2022-09-05T21:33:46.454Z,14.10
2022-09-05T21:36:17.424Z,14.10
2022-09-05T21:38:47.319Z,14.00
2022-09-05T21:41:19.279Z,14.00
2022-09-05T21:47:35.074Z,13.90
2022-09-05T21:47:49.353Z,13.90
2022-09-05T21:49:35.450Z,13.90
2022-09-05T21:52:06.478Z,13.90
2022-09-05T21:59:14.594Z,13.90
2022-09-05T21:59:18.748Z,13.80
2022-09-05T22:00:24.919Z,13.80
2022-09-05T22:02:54.477Z,13.80
2022-09-05T22:05:25.524Z,13.80
2022-09-05T22:07:56.039Z,13.80
2022-09-05T22:10:32.458Z,13.70
2022-09-05T22:13:16.837Z,13.60
2022-09-05T22:15:48.759Z,13.60
2022-09-05T22:18:18.378Z,13.30
2022-09-05T22:21:31.800Z,13.20
2022-09-05T22:23:44.596Z,13.20
2022-09-05T22:26:16.077Z,13.10
2022-09-05T22:28:49.249Z,13.10
2022-09-05T22:31:19.177Z,13.00
2022-09-05T22:33:50.834Z,13.00
2022-09-05T22:36:20.874Z,13.00
2022-09-05T22:38:50.716Z,13.00
2022-09-05T22:41:29.942Z,13.10
2022-09-05T22:44:02.237Z,13.00
2022-09-05T22:46:32.271Z,12.90
2022-09-05T22:49:01.839Z,12.90
2022-09-05T22:51:31.601Z,12.80
2022-09-05T22:54:01.269Z,12.80
2022-09-05T22:56:32.877Z,12.70
2022-09-05T22:59:05.308Z,12.70
2022-09-05T23:01:35.402Z,12.80
2022-09-05T23:04:05.594Z,12.60
2022-09-05T23:06:35.199Z,12.70
2022-09-05T23:09:04.833Z,12.70
2022-09-05T23:11:34.461Z,12.70
2022-09-05T23:14:05.382Z,12.80
2022-09-05T23:16:34.746Z,12.70
2022-09-05T23:19:04.252Z,12.80
2022-09-05T23:21:33.435Z,12.70
2022-09-05T23:24:40.045Z,12.70
2022-09-05T23:27:09.645Z,12.80
2022-09-05T23:30:16.533Z,12.70
2022-09-05T23:32:48.278Z,12.70
2022-09-05T23:35:54.727Z,12.60
2022-09-05T23:39:01.285Z,12.70
2022-09-05T23:42:08.046Z,12.60
2022-09-05T23:44:37.440Z,12.50
2022-09-05T23:47:07.277Z,12.40
2022-09-05T23:49:38.421Z,12.40
2022-09-05T23:52:07.918Z,12.40
2022-09-05T23:55:14.647Z,12.30
2022-09-05T23:57:44.157Z,12.30
